Aberdeen, WA

7:38 PM PDT on September 02, 2014 (GMT -0700)
Central Park 2 | Change Station
CLOSE
Current Station
Personal Weather Station
Location: Aberdeen, WA
Elevation: 33 ft
Nearby Weather Stations

Elev 33 ft 46.97 °N, 123.72 °W | Updated 14 minutes ago

Rain
Rain
59.0 °F
Feels Like 59.0 °F
N
2.7
Wind Variable Wind from SE

Today
High -- | Low -- °F
--% Chance of Precip.
Yesterday
High -- | Low -- °F
Precip. -- in
6:35 AM 7:52 PM
First Quarter, 57% visible
Pressure 29.91 in
Visibility 3.0 miles
Clouds Few 1400 ft
Mostly Cloudy 3800 ft
Overcast 5000 ft
Dew Point 55 °F
Humidity 86%
Rainfall 0.14 in
Snow Depth Not available.
UV 0 out of 12
Pollen 2.80 out of 12
PM2.5 Good
Flu Activity Not available.
SPECI KHQM 030229Z AUTO 27014KT 3SM -RA BR FEW014 BKN038 OVC050 14/13 A2991 RMK AO2 PK WND 27029/0214 RAB11 P0009 T01440128

More Conditions Fewer Conditions

Pressure 29.91 in
Visibility 3.0 miles
Clouds Few 1400 ft
Mostly Cloudy 3800 ft
Overcast 5000 ft
Dew Point 55 °F
Humidity 86%
Rainfall 0.14 in
Snow Depth Not available.
UV 0 out of 12
Pollen 2.80 out of 12
PM2.5 Good
Flu Activity Not available.
SPECI KHQM 030229Z AUTO 27014KT 3SM -RA BR FEW014 BKN038 OVC050 14/13 A2991 RMK AO2 PK WND 27029/0214 RAB11 P0009 T01440128

More Conditions Fewer Conditions

10-Day Weather Forecast

Almanac

Astronomy

Sep. 02, 2014 Rise Set
Actual Time 6:35 AM PDT 7:52 PM PDT
Civil Twilight 6:04 AM PDT 8:23 PM PDT
Nautical Twilight 5:26 AM PDT 9:01 PM PDT
Astronomical Twilight 4:45 AM PDT 9:42 PM PDT
Moon 2:53 PM PDT (9/2) No Moon Set
Length of Visible Light 14h 19m
Length of Day
13h 16m
Tomorrow will be 3m 16s shorter.
First Quarter, 57% of the Moon is Illuminated
Today
First Quarter
Sep 8
Full
Sep 15
Last Quarter
Sep 24
New
Oct 1
First Quarter

Today's Extremes

State Highs State Lows

Community

WunderPhotos

Upload Photos

1,749,845 photos uploaded!

Nearby

Air Quality

  Air Quality AQ Index Pollutant
Yesterday Good
PM2.5
Current Good
PM2.5

Snow Depth

Station Depth Elevation
Mount Crag 0 in 4050 ft
Dungeness 0 in 4100 ft
Burnt Mountain 0 in 4200 ft
Spirit Lake 0 in 3120 ft
Sheep Canyon 0 in 4030 ft

Earthquake Activity

City Distance Mag. Time & Date
No recent earthquake activity has been reported nearby.
Minimum magnitude displayed is 2.5.

Coastal Water Temperatures

Place Temperature
Westport, WA 60.1 °F
Tacoma, WA 55.0 °F
Seattle, WA 57.0 °F
Astoria, OR 71.1 °F

Nearby Weather Stations